createdAt,value
2023-02-11T00:01:07.271Z,12.00
2023-02-11T00:03:35.550Z,13.77
2023-02-11T00:06:05.410Z,12.88
2023-02-11T00:08:35.021Z,8.43
2023-02-11T00:11:03.412Z,10.27
2023-02-11T00:13:32.952Z,10.63
2023-02-11T00:16:01.180Z,12.80
2023-02-11T00:18:29.086Z,10.73
2023-02-11T00:20:57.296Z,14.30
2023-02-11T00:23:25.177Z,12.70
2023-02-11T00:25:54.765Z,12.15
2023-02-11T00:28:22.715Z,11.80
2023-02-11T00:30:55.688Z,13.18
2023-02-11T00:33:23.849Z,11.75
2023-02-11T00:35:52.513Z,13.00
2023-02-11T00:38:20.918Z,15.60
2023-02-11T00:40:49.118Z,13.63
2023-02-11T00:43:18.423Z,12.07
2023-02-11T00:45:47.109Z,13.75
2023-02-11T00:48:15.066Z,12.50
2023-02-11T00:50:43.450Z,14.70
2023-02-11T00:53:13.507Z,14.43
2023-02-11T00:55:44.699Z,12.23
2023-02-11T00:58:12.904Z,13.82
2023-02-11T01:00:42.474Z,10.30
2023-02-11T01:03:10.512Z,16.05
2023-02-11T01:05:38.948Z,15.02
2023-02-11T01:08:07.567Z,16.10
2023-02-11T01:10:35.825Z,12.15
2023-02-11T01:13:03.845Z,13.15
2023-02-11T01:15:32.176Z,11.02
2023-02-11T01:18:01.690Z,13.43
2023-02-11T01:20:30.477Z,13.82
2023-02-11T01:22:58.372Z,13.83
2023-02-11T01:25:26.702Z,14.32
2023-02-11T01:27:55.009Z,9.18
2023-02-11T01:30:23.349Z,19.50
2023-02-11T01:32:51.307Z,13.80
2023-02-11T01:35:20.925Z,15.38
2023-02-11T01:37:48.916Z,15.80
2023-02-11T01:40:18.297Z,12.57
2023-02-11T01:42:48.876Z,16.23
2023-02-11T01:45:37.340Z,12.50
2023-02-11T01:48:05.495Z,15.95
2023-02-11T01:50:35.808Z,18.83
2023-02-11T01:53:24.075Z,17.88
2023-02-11T01:56:10.999Z,11.98
2023-02-11T01:58:40.373Z,15.27
2023-02-11T02:01:09.796Z,14.48
2023-02-11T02:03:41.095Z,17.73
2023-02-11T02:06:14.003Z,16.45
2023-02-11T02:08:43.851Z,16.67
2023-02-11T02:11:12.332Z,16.05
2023-02-11T02:13:40.224Z,12.70
2023-02-11T02:16:10.134Z,17.70
2023-02-11T02:18:43.545Z,16.13
2023-02-11T02:21:27.091Z,16.73
2023-02-11T02:24:12.562Z,20.80
2023-02-11T02:27:06.051Z,21.55
2023-02-11T02:29:52.369Z,18.25
2023-02-11T02:32:39.397Z,14.55
2023-02-11T02:35:16.045Z,17.33
2023-02-11T02:37:48.873Z,22.05
2023-02-11T02:40:17.937Z,15.60
2023-02-11T02:45:14.923Z,18.58
2023-02-11T02:47:43.140Z,16.80
2023-02-11T02:50:15.077Z,12.88
2023-02-11T02:52:47.634Z,13.52
2023-02-11T02:55:35.044Z,13.27
2023-02-11T02:58:20.944Z,14.80
2023-02-11T03:00:52.147Z,15.38
2023-02-11T03:03:25.911Z,18.00
2023-02-11T03:05:58.308Z,19.23
2023-02-11T03:08:31.164Z,13.75
2023-02-11T03:10:59.635Z,17.75
2023-02-11T03:13:33.822Z,14.30
2023-02-11T03:16:04.623Z,15.93
2023-02-11T03:18:34.903Z,13.65
2023-02-11T03:21:06.801Z,13.88
2023-02-11T03:23:37.738Z,10.50
2023-02-11T03:26:09.840Z,16.38
2023-02-11T03:28:40.907Z,15.70
2023-02-11T03:31:31.905Z,14.55
2023-02-11T03:34:03.817Z,12.85
2023-02-11T03:36:35.647Z,12.80
2023-02-11T03:39:05.945Z,17.27
2023-02-11T03:41:34.964Z,16.58
2023-02-11T03:44:03.654Z,10.85
2023-02-11T03:46:33.288Z,16.23
2023-02-11T03:49:04.564Z,17.80
2023-02-11T03:51:35.524Z,12.68
2023-02-11T03:54:05.688Z,12.13
2023-02-11T03:56:35.189Z,11.68
2023-02-11T03:59:03.529Z,14.23
2023-02-11T04:01:31.637Z,13.57
2023-02-11T04:03:59.991Z,13.10
2023-02-11T04:06:27.917Z,15.15
2023-02-11T04:08:57.514Z,10.27
2023-02-11T04:11:25.553Z,17.33
2023-02-11T04:13:53.818Z,14.50
2023-02-11T04:16:22.242Z,12.77
2023-02-11T04:18:50.492Z,12.60
2023-02-11T04:21:18.719Z,11.02
2023-02-11T04:23:46.877Z,10.60
2023-02-11T04:26:16.522Z,9.52
2023-02-11T04:28:45.015Z,8.90
2023-02-11T04:31:13.024Z,11.40
2023-02-11T04:33:41.286Z,10.02
2023-02-11T04:36:09.596Z,8.60
2023-02-11T04:38:37.817Z,8.25
2023-02-11T04:41:05.861Z,8.55
2023-02-11T04:43:35.742Z,7.30
2023-02-11T04:46:03.693Z,8.57
2023-02-11T04:48:32.267Z,7.30
2023-02-11T04:51:00.173Z,9.30
2023-02-11T04:53:28.404Z,7.35
2023-02-11T04:55:56.416Z,7.25
2023-02-11T04:58:24.664Z,8.15
2023-02-11T05:00:54.001Z,5.40
2023-02-11T05:03:22.447Z,7.88
2023-02-11T05:05:50.638Z,7.00
2023-02-11T05:08:18.972Z,7.25
2023-02-11T05:10:47.292Z,6.80
2023-02-11T05:13:15.611Z,7.47
2023-02-11T05:15:43.501Z,7.15
2023-02-11T05:18:16.188Z,7.55
2023-02-11T05:20:44.485Z,9.40
2023-02-11T05:23:12.955Z,8.50
2023-02-11T05:25:40.931Z,8.15
2023-02-11T05:28:09.219Z,8.15
2023-02-11T05:30:37.180Z,7.35
2023-02-11T05:33:05.603Z,7.07
2023-02-11T05:35:34.959Z,7.45
2023-02-11T05:38:03.131Z,7.60
2023-02-11T05:40:31.306Z,9.98
2023-02-11T05:42:59.480Z,7.13
2023-02-11T05:45:27.386Z,7.38
2023-02-11T05:47:55.748Z,8.45
2023-02-11T05:50:24.067Z,9.05
2023-02-11T05:52:53.752Z,5.72
2023-02-11T05:55:21.929Z,4.28
2023-02-11T05:57:50.431Z,6.28
2023-02-11T06:00:18.606Z,7.35
2023-02-11T06:02:46.813Z,4.97
2023-02-11T06:05:14.922Z,7.22
2023-02-11T06:07:43.277Z,6.78
2023-02-11T06:10:12.663Z,6.30
2023-02-11T06:12:41.080Z,5.25
2023-02-11T06:15:09.142Z,5.32
2023-02-11T06:17:37.483Z,6.65
2023-02-11T06:20:07.581Z,4.47
2023-02-11T06:22:35.843Z,5.75
2023-02-11T06:25:04.120Z,6.55
2023-02-11T06:27:34.106Z,8.57
2023-02-11T06:30:01.983Z,7.30
2023-02-11T06:32:43.439Z,6.20
2023-02-11T06:35:12.959Z,6.78
2023-02-11T06:37:41.388Z,6.77
2023-02-11T06:40:10.286Z,7.35
2023-02-11T06:45:11.318Z,6.28
2023-02-11T06:47:40.169Z,6.32
2023-02-11T06:50:08.727Z,4.90
2023-02-11T06:52:37.028Z,8.38
2023-02-11T06:55:07.646Z,7.22
2023-02-11T06:57:38.847Z,7.05
2023-02-11T07:00:07.327Z,6.55
2023-02-11T07:02:37.458Z,7.00
2023-02-11T07:05:06.384Z,6.40
2023-02-11T07:07:35.841Z,7.60
2023-02-11T07:10:04.708Z,5.95
2023-02-11T07:12:33.034Z,6.85
2023-02-11T07:15:01.202Z,6.85
2023-02-11T07:17:29.482Z,5.80
2023-02-11T07:19:58.784Z,7.25
2023-02-11T07:22:27.318Z,6.68
2023-02-11T07:24:55.273Z,7.45
2023-02-11T07:27:23.646Z,6.25
2023-02-11T07:29:51.530Z,7.63
2023-02-11T07:32:19.777Z,6.18
2023-02-11T07:34:48.727Z,8.23
2023-02-11T07:37:18.312Z,5.55
2023-02-11T07:39:46.309Z,6.72
2023-02-11T07:42:14.535Z,5.63
2023-02-11T07:44:42.506Z,5.22
2023-02-11T07:47:11.085Z,5.05
2023-02-11T07:49:39.013Z,4.93
2023-02-11T07:52:07.198Z,5.65
2023-02-11T07:54:36.857Z,5.45
2023-02-11T07:57:05.393Z,6.47
2023-02-11T07:59:33.422Z,5.80
2023-02-11T08:02:01.683Z,4.38
2023-02-11T08:04:29.584Z,4.28
2023-02-11T08:06:59.295Z,4.65
2023-02-11T08:11:56.867Z,3.78
2023-02-11T08:14:25.331Z,3.85
2023-02-11T08:16:53.912Z,3.00
2023-02-11T08:19:21.907Z,3.08
2023-02-11T08:21:50.098Z,2.83
2023-02-11T08:24:18.035Z,2.80
2023-02-11T08:26:46.197Z,2.70
2023-02-11T08:29:16.913Z,3.60
2023-02-11T08:31:46.246Z,2.20
2023-02-11T08:34:18.424Z,2.97
2023-02-11T08:36:47.494Z,3.20
2023-02-11T08:39:19.683Z,3.35
2023-02-11T08:41:49.644Z,2.55
2023-02-11T08:44:19.234Z,2.90
2023-02-11T08:46:48.138Z,4.40
2023-02-11T08:49:16.376Z,3.30
2023-02-11T08:51:44.825Z,2.73
2023-02-11T08:54:12.913Z,2.58
2023-02-11T08:56:41.247Z,3.20
2023-02-11T08:59:10.290Z,2.97
2023-02-11T09:01:40.030Z,3.03
2023-02-11T09:06:36.021Z,3.10
2023-02-11T09:09:04.079Z,2.78
2023-02-11T09:11:33.875Z,2.88
2023-02-11T09:14:02.796Z,3.15
2023-02-11T09:16:31.776Z,2.45
2023-02-11T09:19:03.092Z,2.42
2023-02-11T09:21:31.870Z,2.42
2023-02-11T09:24:00.014Z,2.30
2023-02-11T09:26:29.199Z,2.63
2023-02-11T09:28:57.276Z,2.33
2023-02-11T09:31:26.672Z,2.50
2023-02-11T09:33:55.905Z,3.08
2023-02-11T09:36:27.248Z,2.58
2023-02-11T09:38:55.464Z,2.10
2023-02-11T09:41:37.606Z,2.40
2023-02-11T09:44:06.677Z,1.52
2023-02-11T09:46:37.555Z,1.25
2023-02-11T09:49:06.183Z,1.48
2023-02-11T09:51:37.707Z,1.50
2023-02-11T09:54:08.933Z,1.33
2023-02-11T09:56:37.796Z,1.80
2023-02-11T09:59:05.930Z,1.30
2023-02-11T10:01:37.281Z,1.85
2023-02-11T10:04:06.980Z,1.38
2023-02-11T10:06:50.134Z,1.60
2023-02-11T10:09:29.160Z,1.23
2023-02-11T10:12:03.439Z,1.60
2023-02-11T10:14:43.765Z,1.15
2023-02-11T10:17:17.574Z,1.60
2023-02-11T10:19:52.165Z,1.60
2023-02-11T10:22:23.534Z,1.10
2023-02-11T10:24:54.713Z,1.42
2023-02-11T10:27:25.767Z,1.15
2023-02-11T10:29:56.924Z,1.20
2023-02-11T10:32:32.345Z,1.30
2023-02-11T10:35:02.972Z,1.42
2023-02-11T10:37:31.198Z,1.30
2023-02-11T10:40:00.584Z,1.60
2023-02-11T10:42:29.711Z,1.30
2023-02-11T10:44:59.954Z,1.67
2023-02-11T10:47:29.526Z,2.25
2023-02-11T10:50:03.295Z,2.33
2023-02-11T10:52:32.314Z,2.75
2023-02-11T10:55:14.986Z,2.65
2023-02-11T10:57:51.372Z,3.25
2023-02-11T11:00:25.820Z,2.53
2023-02-11T11:02:55.660Z,4.28
2023-02-11T11:05:27.774Z,3.20
2023-02-11T11:07:57.289Z,3.13
2023-02-11T11:10:30.840Z,4.68
2023-02-11T11:13:00.424Z,4.05
2023-02-11T11:15:28.880Z,3.40
2023-02-11T11:18:22.167Z,3.63
2023-02-11T11:20:56.962Z,3.42
2023-02-11T11:23:25.590Z,3.13
2023-02-11T11:26:01.749Z,3.20
2023-02-11T11:28:32.868Z,3.45
2023-02-11T11:31:01.281Z,3.83
2023-02-11T11:33:31.113Z,3.22
2023-02-11T11:38:28.071Z,2.83
2023-02-11T11:41:15.268Z,3.15
2023-02-11T11:43:56.890Z,3.13
2023-02-11T11:46:26.052Z,3.20
2023-02-11T11:51:22.122Z,3.95
2023-02-11T11:53:54.604Z,3.55
2023-02-11T11:56:23.531Z,3.35
2023-02-11T11:58:51.925Z,3.13
2023-02-11T12:01:27.687Z,2.65
2023-02-11T12:04:22.920Z,3.10
2023-02-11T12:06:58.718Z,3.00
2023-02-11T12:09:32.018Z,2.67
2023-02-11T12:12:06.620Z,3.05
2023-02-11T12:14:40.136Z,2.90
2023-02-11T12:17:14.156Z,3.20
2023-02-11T12:19:56.608Z,3.20
2023-02-11T12:22:32.258Z,3.15
2023-02-11T12:25:21.041Z,3.05
2023-02-11T12:27:57.453Z,3.50
2023-02-11T12:30:34.124Z,3.13
2023-02-11T12:33:09.560Z,3.40
2023-02-11T12:35:45.032Z,3.42
2023-02-11T12:38:30.277Z,3.30
2023-02-11T12:41:04.184Z,3.30
2023-02-11T12:43:34.109Z,3.38
2023-02-11T12:46:17.967Z,2.95
2023-02-11T12:48:55.258Z,3.58
2023-02-11T12:51:32.103Z,3.10
2023-02-11T12:54:15.547Z,3.28
2023-02-11T12:56:47.063Z,3.10
2023-02-11T12:59:19.068Z,3.10
2023-02-11T13:01:48.828Z,3.70
2023-02-11T13:06:47.879Z,3.47
2023-02-11T13:09:19.198Z,3.38
2023-02-11T13:11:52.253Z,3.38
2023-02-11T13:14:24.903Z,3.60
2023-02-11T13:16:53.921Z,3.22
2023-02-11T13:19:26.631Z,3.45
2023-02-11T13:22:01.990Z,2.72
2023-02-11T13:24:34.123Z,3.25
2023-02-11T13:27:06.024Z,3.38
2023-02-11T13:29:37.862Z,3.63
2023-02-11T13:32:10.721Z,3.58
2023-02-11T13:34:57.200Z,4.30
2023-02-11T13:37:28.142Z,3.38
2023-02-11T13:40:00.424Z,3.00
2023-02-11T13:42:30.099Z,3.08
2023-02-11T13:47:31.858Z,3.05
2023-02-11T13:50:00.632Z,3.58
2023-02-11T13:52:31.972Z,2.95
2023-02-11T13:55:04.191Z,3.55
2023-02-11T13:57:34.745Z,3.25
2023-02-11T14:00:09.795Z,2.72
2023-02-11T14:02:56.012Z,3.05
2023-02-11T14:05:43.004Z,2.78
2023-02-11T14:08:38.458Z,3.97
2023-02-11T14:11:12.529Z,3.50
2023-02-11T14:14:09.751Z,3.63
2023-02-11T14:16:57.990Z,4.15
2023-02-11T14:19:33.765Z,3.25
2023-02-11T14:22:03.800Z,3.85
2023-02-11T14:24:50.709Z,3.70
2023-02-11T14:27:35.415Z,4.38
2023-02-11T14:30:15.895Z,2.60
2023-02-11T14:32:50.082Z,3.42
2023-02-11T14:35:23.630Z,3.58
2023-02-11T14:37:57.008Z,3.78
2023-02-11T14:40:29.415Z,3.38
2023-02-11T14:43:02.221Z,2.88
2023-02-11T14:45:31.269Z,3.63
2023-02-11T14:48:02.817Z,3.10
2023-02-11T14:50:34.793Z,3.20
2023-02-11T14:53:04.525Z,3.63
2023-02-11T14:55:34.805Z,3.25
2023-02-11T14:58:09.233Z,3.63
2023-02-11T15:00:37.582Z,2.85
2023-02-11T15:03:05.850Z,3.35
2023-02-11T15:05:34.107Z,2.90
2023-02-11T15:08:03.468Z,3.20
2023-02-11T15:10:32.829Z,3.20
2023-02-11T15:13:05.020Z,3.17
2023-02-11T15:18:04.026Z,3.00
2023-02-11T15:20:33.386Z,3.53
2023-02-11T15:23:03.920Z,3.55
2023-02-11T15:25:34.169Z,3.53
2023-02-11T15:28:02.366Z,3.75
2023-02-11T15:30:34.008Z,4.45
2023-02-11T15:33:05.664Z,3.33
2023-02-11T15:35:35.556Z,4.43
2023-02-11T15:38:03.784Z,4.00
2023-02-11T15:40:33.683Z,3.63
2023-02-11T15:43:06.238Z,3.55
2023-02-11T15:45:37.562Z,3.28
2023-02-11T15:48:11.243Z,3.42
2023-02-11T15:50:40.944Z,2.97
2023-02-11T15:53:21.249Z,3.22
2023-02-11T15:55:50.192Z,3.72
2023-02-11T15:58:18.107Z,4.40
2023-02-11T16:00:47.733Z,5.28
2023-02-11T16:03:22.344Z,3.42
2023-02-11T16:05:50.990Z,3.42
2023-02-11T16:08:24.572Z,6.32
2023-02-11T16:10:59.278Z,3.80
2023-02-11T16:13:28.521Z,5.50
2023-02-11T16:15:58.515Z,4.20
2023-02-11T16:18:38.149Z,3.53
2023-02-11T16:21:09.088Z,3.60
2023-02-11T16:23:38.826Z,3.70
2023-02-11T16:26:09.283Z,3.85
2023-02-11T16:28:38.077Z,4.00
2023-02-11T16:31:07.000Z,3.95
2023-02-11T16:33:36.602Z,3.88
2023-02-11T16:36:07.745Z,3.67
2023-02-11T16:38:35.811Z,5.53
2023-02-11T16:41:07.193Z,5.50
2023-02-11T16:43:35.429Z,4.60
2023-02-11T16:46:04.150Z,3.77
2023-02-11T16:48:33.544Z,3.00
2023-02-11T16:51:03.616Z,2.25
2023-02-11T16:56:00.544Z,2.03
2023-02-11T16:58:29.137Z,2.60
2023-02-11T17:00:58.422Z,2.95
2023-02-11T17:03:30.082Z,2.40
2023-02-11T17:05:58.736Z,1.67
2023-02-11T17:08:29.998Z,1.10
2023-02-11T17:10:58.327Z,1.50
2023-02-11T17:13:26.252Z,1.45
2023-02-11T17:15:55.911Z,1.70
2023-02-11T17:20:52.094Z,1.42
2023-02-11T17:23:20.206Z,1.45
2023-02-11T17:25:55.699Z,1.27
2023-02-11T17:28:23.891Z,2.55
2023-02-11T17:30:52.291Z,1.80
2023-02-11T17:33:20.234Z,2.45
2023-02-11T17:35:50.907Z,1.73
2023-02-11T17:38:19.283Z,2.00
2023-02-11T17:40:47.687Z,1.70
2023-02-11T17:43:17.184Z,2.20
2023-02-11T17:45:45.653Z,1.65
2023-02-11T17:48:15.446Z,1.85
2023-02-11T17:50:43.871Z,1.23
2023-02-11T17:53:11.819Z,1.55
2023-02-11T17:55:40.010Z,0.93
2023-02-11T17:58:08.553Z,1.02
2023-02-11T18:00:39.330Z,1.55
2023-02-11T18:03:07.244Z,1.23
2023-02-11T18:05:35.830Z,1.30
2023-02-11T18:08:04.638Z,0.80
2023-02-11T18:10:33.536Z,1.30
2023-02-11T18:13:01.753Z,1.30
2023-02-11T18:15:30.131Z,0.77
2023-02-11T18:17:59.478Z,0.95
2023-02-11T18:20:27.852Z,0.65
2023-02-11T18:22:56.310Z,0.60
2023-02-11T18:25:24.495Z,1.20
2023-02-11T18:27:52.619Z,0.60
2023-02-11T18:30:20.924Z,0.70
2023-02-11T18:32:49.312Z,0.80
2023-02-11T18:35:20.174Z,1.05
2023-02-11T18:37:48.216Z,0.70
2023-02-11T18:40:16.825Z,1.25
2023-02-11T18:42:46.910Z,1.20
2023-02-11T18:45:16.025Z,1.55
2023-02-11T18:47:44.056Z,0.55
2023-02-11T18:50:13.999Z,0.90
2023-02-11T18:52:43.684Z,0.70
2023-02-11T18:55:12.423Z,0.50
2023-02-11T18:57:40.340Z,0.85
2023-02-11T19:00:13.965Z,0.70
2023-02-11T19:02:42.445Z,0.82
2023-02-11T19:05:11.479Z,0.85
2023-02-11T19:07:39.710Z,0.68
2023-02-11T19:10:10.843Z,0.93
2023-02-11T19:12:41.624Z,1.02
2023-02-11T19:15:10.345Z,1.05
2023-02-11T19:17:38.462Z,2.13
2023-02-11T19:20:08.294Z,1.80
2023-02-11T19:22:36.257Z,1.17
2023-02-11T19:25:05.423Z,0.82
2023-02-11T19:27:35.317Z,1.35
2023-02-11T19:30:08.080Z,1.20
2023-02-11T19:32:36.139Z,1.05
2023-02-11T19:35:04.956Z,1.10
2023-02-11T19:37:33.260Z,0.83
2023-02-11T19:40:01.494Z,1.23
2023-02-11T19:42:30.152Z,1.05
2023-02-11T19:45:00.269Z,1.13
2023-02-11T19:47:28.328Z,0.68
2023-02-11T19:49:57.317Z,0.57
2023-02-11T19:52:25.472Z,0.45
2023-02-11T19:54:53.782Z,0.60
2023-02-11T19:57:22.773Z,0.73
2023-02-11T19:59:53.496Z,0.60
2023-02-11T20:02:23.428Z,0.77
2023-02-11T20:04:52.238Z,0.60
2023-02-11T20:07:20.214Z,0.53
2023-02-11T20:09:48.978Z,1.50
2023-02-11T20:12:16.899Z,1.20
2023-02-11T20:14:45.390Z,0.80
2023-02-11T20:17:15.510Z,1.30
2023-02-11T20:19:47.565Z,0.63
2023-02-11T20:22:15.795Z,0.70
2023-02-11T20:24:44.198Z,0.80
2023-02-11T20:27:13.123Z,0.80
2023-02-11T20:29:41.813Z,0.82
2023-02-11T20:32:10.728Z,0.70
2023-02-11T20:34:39.172Z,0.88
2023-02-11T20:37:09.406Z,0.73
2023-02-11T20:39:41.066Z,0.70
2023-02-11T20:42:10.484Z,0.80
2023-02-11T20:44:38.711Z,0.70
2023-02-11T20:47:07.229Z,1.13
2023-02-11T20:49:35.395Z,0.80
2023-02-11T20:52:03.355Z,0.73
2023-02-11T20:54:35.278Z,0.30
2023-02-11T20:57:03.184Z,0.60
2023-02-11T20:59:31.634Z,0.85
2023-02-11T21:01:59.870Z,0.50
2023-02-11T21:04:29.541Z,0.60
2023-02-11T21:09:26.734Z,0.85
2023-02-11T21:11:56.154Z,0.52
2023-02-11T21:14:25.735Z,0.70
2023-02-11T21:16:53.761Z,0.80
2023-02-11T21:19:22.767Z,1.00
2023-02-11T21:21:51.194Z,0.85
2023-02-11T21:24:19.596Z,0.75
2023-02-11T21:26:48.598Z,0.93
2023-02-11T21:29:18.498Z,0.90
2023-02-11T21:31:46.513Z,0.70
2023-02-11T21:34:16.161Z,1.13
2023-02-11T21:36:45.523Z,0.70
2023-02-11T21:39:15.187Z,0.63
2023-02-11T21:41:43.195Z,0.40
2023-02-11T21:44:11.412Z,0.60
2023-02-11T21:46:41.168Z,0.50
2023-02-11T21:49:09.523Z,1.10
2023-02-11T21:51:37.864Z,0.40
2023-02-11T21:54:06.125Z,0.63
2023-02-11T21:56:35.508Z,0.50
2023-02-11T21:59:03.949Z,0.30
2023-02-11T22:01:33.188Z,0.52
2023-02-11T22:06:31.848Z,0.43
2023-02-11T22:09:02.787Z,0.65
2023-02-11T22:11:30.733Z,0.60
2023-02-11T22:13:59.394Z,0.63
2023-02-11T22:16:28.118Z,0.40
2023-02-11T22:18:59.073Z,0.80
2023-02-11T22:21:27.583Z,0.70
2023-02-11T22:23:57.169Z,0.70
2023-02-11T22:26:25.989Z,0.70
2023-02-11T22:28:54.956Z,0.95
2023-02-11T22:31:24.266Z,0.80
2023-02-11T22:33:52.717Z,1.00
2023-02-11T22:36:21.382Z,1.00
2023-02-11T22:38:50.072Z,0.98
2023-02-11T22:41:19.800Z,0.60
2023-02-11T22:43:48.161Z,0.50
2023-02-11T22:46:17.642Z,0.60
2023-02-11T22:48:46.380Z,0.77
2023-02-11T22:51:15.773Z,0.90
2023-02-11T22:53:44.520Z,0.77
2023-02-11T22:56:15.816Z,0.50
2023-02-11T22:58:45.829Z,0.70
2023-02-11T23:01:14.561Z,0.60
2023-02-11T23:03:42.937Z,0.80
2023-02-11T23:06:11.018Z,1.30
2023-02-11T23:08:40.375Z,0.90
2023-02-11T23:11:10.029Z,1.02
2023-02-11T23:13:39.038Z,1.00
2023-02-11T23:16:11.594Z,0.70
2023-02-11T23:18:41.052Z,0.70
2023-02-11T23:21:12.408Z,0.60
2023-02-11T23:23:40.885Z,0.80
2023-02-11T23:26:10.657Z,0.50
2023-02-11T23:28:39.152Z,0.63
2023-02-11T23:31:15.823Z,0.45
2023-02-11T23:33:44.186Z,0.45
2023-02-11T23:36:12.199Z,0.70
2023-02-11T23:38:41.805Z,0.60
2023-02-11T23:41:09.775Z,0.63
2023-02-11T23:43:38.146Z,0.77
2023-02-11T23:46:07.039Z,0.68
2023-02-11T23:48:37.783Z,0.73
2023-02-11T23:51:06.471Z,1.17
2023-02-11T23:53:34.693Z,1.17
2023-02-11T23:56:06.834Z,0.98
2023-02-11T23:58:35.427Z,0.70
